createdAt,value
2023-01-24T00:01:20.766Z,103106.66
2023-01-24T00:03:49.053Z,103078.38
2023-01-24T00:06:17.654Z,103119.84
2023-01-24T00:08:45.891Z,103139.13
2023-01-24T00:11:15.150Z,103169.28
2023-01-24T00:13:43.060Z,103165.84
2023-01-24T00:16:15.369Z,103120.88
2023-01-24T00:18:43.840Z,103097.13
2023-01-24T00:21:14.206Z,103097.03
2023-01-24T00:23:43.410Z,103102.25
2023-01-24T00:26:11.903Z,103078.38
2023-01-24T00:28:39.985Z,103066.72
2023-01-24T00:31:08.109Z,103073.75
2023-01-24T00:33:37.396Z,103098.56
2023-01-24T00:36:06.129Z,103126.69
2023-01-24T00:38:33.988Z,103115.31
2023-01-24T00:41:01.937Z,103121.56
2023-01-24T00:43:30.725Z,103113.66
2023-01-24T00:45:59.037Z,103137.47
2023-01-24T00:48:27.279Z,103098.59
2023-01-24T00:50:56.716Z,103067.69
2023-01-24T00:53:27.177Z,103082.56
2023-01-24T00:55:56.092Z,103077.13
2023-01-24T00:58:25.029Z,103124.59
2023-01-24T01:00:56.181Z,103105.19
2023-01-24T01:03:24.287Z,103102.41
2023-01-24T01:05:52.172Z,103144.69
2023-01-24T01:08:21.585Z,103169.34
2023-01-24T01:10:49.543Z,103155.28
2023-01-24T01:13:17.280Z,103138.47
2023-01-24T01:15:48.358Z,103129.66
2023-01-24T01:18:16.568Z,103130.50
2023-01-24T01:20:50.561Z,103116.56
2023-01-24T01:23:18.555Z,103048.63
2023-01-24T01:25:47.854Z,103023.22
2023-01-24T01:28:15.820Z,102980.13
2023-01-24T01:30:43.652Z,102962.63
2023-01-24T01:33:11.569Z,102964.53
2023-01-24T01:35:39.612Z,102924.94
2023-01-24T01:38:08.074Z,102917.91
2023-01-24T01:40:37.085Z,102872.09
2023-01-24T01:43:14.207Z,102918.78
2023-01-24T01:45:44.373Z,102922.41
2023-01-24T01:48:20.899Z,102885.44
2023-01-24T01:50:55.165Z,102873.00
2023-01-24T01:53:25.818Z,102891.44
2023-01-24T01:55:59.824Z,102837.81
2023-01-24T01:58:29.668Z,102829.00
2023-01-24T02:00:57.662Z,102875.63
2023-01-24T02:03:43.731Z,102797.38
2023-01-24T02:06:35.159Z,102739.41
2023-01-24T02:09:06.680Z,102690.09
2023-01-24T02:11:40.859Z,102741.16
2023-01-24T02:14:30.610Z,102713.03
2023-01-24T02:16:58.598Z,102655.00
2023-01-24T02:19:42.038Z,102623.41
2023-01-24T02:22:17.600Z,102642.69
2023-01-24T02:24:52.905Z,102645.31
2023-01-24T02:27:22.695Z,102640.94
2023-01-24T02:29:51.544Z,102617.19
2023-01-24T02:35:25.729Z,102636.56
2023-01-24T02:37:54.124Z,102590.81
2023-01-24T02:40:23.043Z,102593.44
2023-01-24T02:42:53.902Z,102570.50
2023-01-24T02:45:25.787Z,102531.09
2023-01-24T02:47:58.088Z,102517.88
2023-01-24T02:50:29.404Z,102502.03
2023-01-24T02:53:14.879Z,102549.44
2023-01-24T02:55:56.663Z,102534.50
2023-01-24T02:58:26.195Z,102518.50
2023-01-24T03:00:54.179Z,102545.69
2023-01-24T03:03:22.316Z,102548.28
2023-01-24T03:05:57.775Z,102553.34
2023-01-24T03:08:26.608Z,102581.44
2023-01-24T03:10:54.731Z,102584.13
2023-01-24T03:13:40.928Z,102581.56
2023-01-24T03:16:27.869Z,102559.56
2023-01-24T03:19:13.269Z,102514.81
2023-01-24T03:21:58.871Z,102534.97
2023-01-24T03:24:44.857Z,102560.44
2023-01-24T03:27:30.013Z,102581.56
2023-01-24T03:30:15.363Z,102554.47
2023-01-24T03:33:02.224Z,102582.50
2023-01-24T03:35:31.058Z,102580.72
2023-01-24T03:38:16.870Z,102597.44
2023-01-24T03:40:44.944Z,102605.38
2023-01-24T03:43:13.349Z,102584.19
2023-01-24T03:45:41.952Z,102534.25
2023-01-24T03:48:14.091Z,102502.69
2023-01-24T03:51:01.284Z,102496.50
2023-01-24T03:53:31.137Z,102484.97
2023-01-24T03:56:00.929Z,102559.50
2023-01-24T03:58:30.326Z,102553.34
2023-01-24T04:00:59.126Z,102559.50
2023-01-24T04:03:28.577Z,102480.53
2023-01-24T04:05:56.494Z,102457.69
2023-01-24T04:08:24.405Z,102446.38
2023-01-24T04:10:52.357Z,102436.69
2023-01-24T04:13:20.217Z,102448.00
2023-01-24T04:15:48.056Z,102473.34
2023-01-24T04:18:16.068Z,102447.09
2023-01-24T04:20:45.397Z,102442.66
2023-01-24T04:23:13.722Z,102486.50
2023-01-24T04:25:41.700Z,102483.94
2023-01-24T04:28:09.661Z,102544.38
2023-01-24T04:30:37.570Z,102506.63
2023-01-24T04:33:05.684Z,102569.84
2023-01-24T04:35:33.841Z,102514.50
2023-01-24T04:38:04.103Z,102506.69
2023-01-24T04:40:32.207Z,102491.03
2023-01-24T04:43:00.521Z,102497.13
2023-01-24T04:45:28.468Z,102500.59
2023-01-24T04:47:56.429Z,102475.97
2023-01-24T04:50:24.491Z,102468.19
2023-01-24T04:52:52.349Z,102475.28
2023-01-24T04:55:22.114Z,102419.16
2023-01-24T04:57:50.139Z,102448.94
2023-01-24T05:00:21.428Z,102427.06
2023-01-24T05:02:49.451Z,102460.38
2023-01-24T05:05:17.809Z,102484.97
2023-01-24T05:07:45.896Z,102466.53
2023-01-24T05:10:15.871Z,102454.25
2023-01-24T05:12:45.420Z,102453.34
2023-01-24T05:15:13.428Z,102470.03
2023-01-24T05:17:41.313Z,102391.84
2023-01-24T05:20:10.888Z,102431.28
2023-01-24T05:22:39.158Z,102542.84
2023-01-24T05:25:08.433Z,102515.81
2023-01-24T05:27:36.514Z,102477.91
2023-01-24T05:30:07.823Z,102537.38
2023-01-24T05:32:36.117Z,102500.59
2023-01-24T05:35:04.823Z,102478.69
2023-01-24T05:37:33.736Z,102522.59
2023-01-24T05:40:01.989Z,102476.19
2023-01-24T05:42:30.275Z,102431.44
2023-01-24T05:44:58.593Z,102449.03
2023-01-24T05:47:28.218Z,102493.63
2023-01-24T05:49:59.321Z,102476.06
2023-01-24T05:52:27.490Z,102439.97
2023-01-24T05:54:55.595Z,102449.66
2023-01-24T05:57:23.765Z,102482.91
2023-01-24T05:59:51.895Z,102523.22
2023-01-24T06:02:20.008Z,102512.75
2023-01-24T06:04:49.487Z,102506.47
2023-01-24T06:07:17.658Z,102541.56
2023-01-24T06:09:45.517Z,102605.66
2023-01-24T06:12:13.432Z,102582.81
2023-01-24T06:14:41.457Z,102588.94
2023-01-24T06:17:09.430Z,102562.69
2023-01-24T06:19:38.304Z,102579.31
2023-01-24T06:22:18.459Z,102565.31
2023-01-24T06:24:47.114Z,102574.94
2023-01-24T06:27:15.796Z,102564.44
2023-01-24T06:29:44.516Z,102498.69
2023-01-24T06:32:27.952Z,102474.25
2023-01-24T06:35:16.626Z,102444.41
2023-01-24T06:37:49.431Z,102459.06
2023-01-24T06:40:20.700Z,102419.75
2023-01-24T06:42:49.416Z,102430.31
2023-01-24T06:45:17.878Z,102436.22
2023-01-24T06:47:46.350Z,102467.88
2023-01-24T06:50:17.443Z,102469.72
2023-01-24T06:52:48.624Z,102473.31
2023-01-24T06:55:17.124Z,102539.16
2023-01-24T06:57:47.468Z,102495.31
2023-01-24T07:00:16.870Z,102491.81
2023-01-24T07:02:44.693Z,102483.88
2023-01-24T07:05:12.733Z,102509.38
2023-01-24T07:07:40.956Z,102552.28
2023-01-24T07:10:12.107Z,102559.13
2023-01-24T07:12:40.096Z,102611.78
2023-01-24T07:15:08.745Z,102600.34
2023-01-24T07:17:37.298Z,102659.16
2023-01-24T07:20:06.129Z,102619.66
2023-01-24T07:22:35.110Z,102620.56
2023-01-24T07:25:03.992Z,102607.44
2023-01-24T07:27:36.760Z,102588.16
2023-01-24T07:30:06.427Z,102639.88
2023-01-24T07:32:34.344Z,102631.16
2023-01-24T07:35:02.386Z,102700.47
2023-01-24T07:37:31.690Z,102677.78
2023-01-24T07:39:59.813Z,102626.91
2023-01-24T07:42:27.704Z,102628.75
2023-01-24T07:44:58.003Z,102640.19
2023-01-24T07:47:27.630Z,102610.38
2023-01-24T07:49:55.537Z,102620.94
2023-01-24T07:52:23.600Z,102621.88
2023-01-24T07:54:51.941Z,102583.16
2023-01-24T07:57:19.988Z,102599.00
2023-01-24T07:59:48.031Z,102612.16
2023-01-24T08:02:17.458Z,102594.63
2023-01-24T08:04:45.420Z,102596.50
2023-01-24T08:07:19.843Z,102576.19
2023-01-24T08:09:49.385Z,102623.69
2023-01-24T08:12:18.691Z,102610.78
2023-01-24T08:14:46.922Z,102567.59
2023-01-24T08:17:15.046Z,102573.69
2023-01-24T08:19:59.911Z,102568.59
2023-01-24T08:22:28.165Z,102579.16
2023-01-24T08:24:56.200Z,102614.41
2023-01-24T08:27:24.615Z,102634.75
2023-01-24T08:29:52.725Z,102606.84
2023-01-24T08:32:20.636Z,102555.31
2023-01-24T08:34:50.315Z,102493.00
2023-01-24T08:37:19.350Z,102584.22
2023-01-24T08:39:47.464Z,102615.19
2023-01-24T08:42:15.520Z,102625.00
2023-01-24T08:44:43.983Z,102610.09
2023-01-24T08:47:12.403Z,102569.75
2023-01-24T08:49:40.362Z,102590.16
2023-01-24T08:52:10.018Z,102520.66
2023-01-24T08:54:38.196Z,102467.97
2023-01-24T08:57:07.736Z,102545.41
2023-01-24T08:59:35.786Z,102506.06
2023-01-24T09:02:05.071Z,102455.13
2023-01-24T09:04:33.360Z,102471.63
2023-01-24T09:07:01.675Z,102439.88
2023-01-24T09:09:31.164Z,102489.00
2023-01-24T09:11:59.283Z,102451.94
2023-01-24T09:14:27.662Z,102467.78
2023-01-24T09:16:56.286Z,102465.06
2023-01-24T09:19:25.018Z,102559.19
2023-01-24T09:21:55.905Z,102506.63
2023-01-24T09:24:23.965Z,102518.88
2023-01-24T09:26:53.529Z,102483.81
2023-01-24T09:29:21.427Z,102434.75
2023-01-24T09:31:50.096Z,102555.06
2023-01-24T09:34:18.311Z,102560.41
2023-01-24T09:36:49.494Z,102617.03
2023-01-24T09:39:17.750Z,102413.28
2023-01-24T09:42:16.074Z,102486.97
2023-01-24T09:44:47.383Z,102511.59
2023-01-24T09:47:21.962Z,102470.38
2023-01-24T09:49:55.445Z,102548.88
2023-01-24T09:52:31.854Z,102522.69
2023-01-24T09:55:05.710Z,102410.16
2023-01-24T09:57:51.643Z,102411.00
2023-01-24T10:00:24.700Z,102370.59
2023-01-24T10:02:53.171Z,102491.06
2023-01-24T10:05:24.811Z,102349.63
2023-01-24T10:08:08.209Z,102342.63
2023-01-24T10:10:49.044Z,102402.38
2023-01-24T10:14:32.991Z,102362.78
2023-01-24T10:17:43.693Z,102416.63
2023-01-24T10:20:33.847Z,102335.75
2023-01-24T10:23:18.043Z,102347.19
2023-01-24T10:25:56.337Z,102406.78
2023-01-24T10:28:28.705Z,102369.88
2023-01-24T10:31:06.873Z,102485.03
2023-01-24T10:33:43.305Z,102434.06
2023-01-24T10:36:16.139Z,102482.63
2023-01-24T10:38:44.694Z,102418.44
2023-01-24T10:41:21.669Z,102359.59
2023-01-24T10:43:56.404Z,102457.19
2023-01-24T10:47:17.601Z,102416.91
2023-01-24T10:49:52.641Z,102482.13
2023-01-24T10:52:22.208Z,102300.97
2023-01-24T10:54:54.122Z,102500.22
2023-01-24T10:57:43.698Z,102489.88
2023-01-24T11:00:31.450Z,102429.22
2023-01-24T11:03:01.186Z,102443.38
2023-01-24T11:05:41.255Z,102365.97
2023-01-24T11:08:20.322Z,102439.88
2023-01-24T11:10:48.506Z,102309.81
2023-01-24T11:13:36.357Z,102322.09
2023-01-24T11:16:07.999Z,102350.25
2023-01-24T11:18:38.189Z,102340.66
2023-01-24T11:21:10.182Z,102418.09
2023-01-24T11:23:38.712Z,102330.19
2023-01-24T11:26:09.134Z,102328.44
2023-01-24T11:28:39.489Z,102295.97
2023-01-24T11:31:19.801Z,102298.63
2023-01-24T11:34:02.444Z,102361.00
2023-01-24T11:36:42.441Z,102369.69
2023-01-24T11:39:18.899Z,102481.44
2023-01-24T11:41:53.274Z,102398.13
2023-01-24T11:44:43.386Z,102315.47
2023-01-24T11:47:16.272Z,102300.53
2023-01-24T11:50:23.333Z,102259.28
2023-01-24T11:53:04.756Z,102345.31
2023-01-24T11:55:42.427Z,102355.09
2023-01-24T11:58:30.985Z,102296.22
2023-01-24T12:01:07.881Z,102321.69
2023-01-24T12:03:54.915Z,102356.00
2023-01-24T12:06:32.841Z,102400.88
2023-01-24T12:09:19.879Z,102371.91
2023-01-24T12:11:56.437Z,102307.00
2023-01-24T12:14:47.962Z,102313.25
2023-01-24T12:17:30.490Z,102196.31
2023-01-24T12:20:28.936Z,102379.16
2023-01-24T12:23:01.723Z,102318.69
2023-01-24T12:25:35.055Z,102272.91
2023-01-24T12:28:06.637Z,102388.16
2023-01-24T12:30:40.404Z,102268.59
2023-01-24T12:33:19.905Z,102322.09
2023-01-24T12:35:51.305Z,102306.34
2023-01-24T12:38:23.313Z,102343.34
2023-01-24T12:40:58.187Z,102237.72
2023-01-24T12:43:34.257Z,102285.03
2023-01-24T12:46:14.500Z,102270.00
2023-01-24T12:48:48.713Z,102268.16
2023-01-24T12:51:23.425Z,102285.69
2023-01-24T12:54:08.454Z,102325.19
2023-01-24T12:56:48.263Z,102340.03
2023-01-24T12:59:21.639Z,102383.97
2023-01-24T13:02:07.473Z,102430.59
2023-01-24T13:04:45.569Z,102419.97
2023-01-24T13:07:25.711Z,102444.63
2023-01-24T13:10:02.777Z,102449.91
2023-01-24T13:12:33.477Z,102478.94
2023-01-24T13:15:04.642Z,102466.69
2023-01-24T13:17:56.542Z,102437.75
2023-01-24T13:20:50.004Z,102457.13
2023-01-24T13:23:39.539Z,102571.44
2023-01-24T13:26:25.693Z,102591.97
2023-01-24T13:29:09.365Z,102458.28
2023-01-24T13:31:48.615Z,102492.56
2023-01-24T13:34:21.345Z,102363.31
2023-01-24T13:36:52.505Z,102427.47
2023-01-24T13:39:33.852Z,102449.56
2023-01-24T13:42:08.063Z,102478.66
2023-01-24T13:44:40.165Z,102497.34
2023-01-24T13:47:38.459Z,102324.16
2023-01-24T13:50:20.380Z,102358.25
2023-01-24T13:52:51.218Z,102488.56
2023-01-24T13:55:58.536Z,102459.69
2023-01-24T13:58:35.854Z,102388.53
2023-01-24T14:01:05.911Z,102319.91
2023-01-24T14:03:37.638Z,102386.66
2023-01-24T14:06:16.611Z,102251.22
2023-01-24T14:09:03.786Z,102351.41
2023-01-24T14:11:39.022Z,102244.91
2023-01-24T14:14:39.201Z,102345.03
2023-01-24T14:17:49.644Z,102312.38
2023-01-24T14:20:32.360Z,102366.88
2023-01-24T14:23:03.574Z,102379.94
2023-01-24T14:25:44.429Z,102401.81
2023-01-24T14:28:19.323Z,102454.72
2023-01-24T14:30:50.786Z,102480.31
2023-01-24T14:33:45.765Z,102439.00
2023-01-24T14:36:22.678Z,102392.31
2023-01-24T14:38:50.569Z,102416.88
2023-01-24T14:41:24.360Z,102523.38
2023-01-24T14:43:52.638Z,102463.63
2023-01-24T14:46:24.134Z,102410.88
2023-01-24T14:48:53.658Z,102359.72
2023-01-24T14:51:24.977Z,102427.34
2023-01-24T14:53:54.905Z,102464.25
2023-01-24T14:56:25.656Z,102452.75
2023-01-24T14:58:55.890Z,102514.28
2023-01-24T15:01:34.873Z,102516.03
2023-01-24T15:04:05.541Z,102549.47
2023-01-24T15:06:35.727Z,102524.88
2023-01-24T15:09:04.616Z,102552.19
2023-01-24T15:11:37.131Z,102514.28
2023-01-24T15:14:07.586Z,102482.50
2023-01-24T15:16:37.972Z,102552.78
2023-01-24T15:19:12.784Z,102523.72
2023-01-24T15:21:42.246Z,102588.72
2023-01-24T15:24:21.627Z,102542.91
2023-01-24T15:26:49.569Z,102590.38
2023-01-24T15:29:45.800Z,102572.88
2023-01-24T15:32:41.755Z,102610.78
2023-01-24T15:35:39.655Z,102536.75
2023-01-24T15:38:17.398Z,102596.59
2023-01-24T15:40:51.150Z,102626.50
2023-01-24T15:43:40.353Z,102592.22
2023-01-24T15:46:28.293Z,102535.84
2023-01-24T15:49:00.037Z,102600.91
2023-01-24T15:51:37.659Z,102621.91
2023-01-24T15:54:11.925Z,102621.91
2023-01-24T15:56:51.804Z,102629.94
2023-01-24T15:59:22.963Z,102610.63
2023-01-24T16:01:50.989Z,102593.03
2023-01-24T16:04:21.532Z,102593.09
2023-01-24T16:06:51.547Z,102587.72
2023-01-24T16:09:19.815Z,102580.63
2023-01-24T16:11:49.693Z,102585.88
2023-01-24T16:14:21.154Z,102615.69
2023-01-24T16:16:50.713Z,102613.91
2023-01-24T16:19:20.937Z,102667.47
2023-01-24T16:21:58.768Z,102650.75
2023-01-24T16:24:31.915Z,102664.00
2023-01-24T16:27:01.820Z,102592.78
2023-01-24T16:29:31.817Z,102585.59
2023-01-24T16:31:59.680Z,102648.00
2023-01-24T16:34:27.592Z,102635.56
2023-01-24T16:36:56.904Z,102700.59
2023-01-24T16:39:25.026Z,102668.81
2023-01-24T16:41:53.474Z,102702.97
2023-01-24T16:44:21.356Z,102743.44
2023-01-24T16:46:51.131Z,102703.91
2023-01-24T16:49:19.474Z,102664.13
2023-01-24T16:51:48.014Z,102681.56
2023-01-24T16:54:17.172Z,102722.03
2023-01-24T16:56:46.064Z,102719.31
2023-01-24T16:59:14.114Z,102706.88
2023-01-24T17:01:42.742Z,102759.66
2023-01-24T17:04:14.229Z,102800.09
2023-01-24T17:06:42.133Z,102763.09
2023-01-24T17:09:11.294Z,102759.50
2023-01-24T17:11:40.536Z,102754.19
2023-01-24T17:14:08.429Z,102793.72
2023-01-24T17:16:36.249Z,102807.00
2023-01-24T17:19:04.394Z,102824.72
2023-01-24T17:21:32.415Z,102823.88
2023-01-24T17:24:00.482Z,102852.88
2023-01-24T17:26:28.505Z,102859.03
2023-01-24T17:28:57.758Z,102852.88
2023-01-24T17:31:26.543Z,102780.75
2023-01-24T17:33:57.646Z,102781.59
2023-01-24T17:36:25.761Z,102808.97
2023-01-24T17:38:54.924Z,102803.78
2023-01-24T17:41:24.152Z,102816.25
2023-01-24T17:43:53.509Z,102801.34
2023-01-24T17:46:25.898Z,102835.69
2023-01-24T17:48:53.830Z,102824.34
2023-01-24T17:51:26.128Z,102797.09
2023-01-24T17:53:55.166Z,102774.13
2023-01-24T17:56:23.016Z,102776.72
2023-01-24T17:58:50.829Z,102793.38
2023-01-24T18:01:19.108Z,102788.94
2023-01-24T18:03:48.773Z,102815.22
2023-01-24T18:06:18.127Z,102797.56
2023-01-24T18:08:46.972Z,102800.97
2023-01-24T18:11:16.835Z,102821.16
2023-01-24T18:13:45.119Z,102859.03
2023-01-24T18:16:15.078Z,102849.44
2023-01-24T18:18:43.323Z,102865.28
2023-01-24T18:21:14.060Z,102875.78
2023-01-24T18:23:41.939Z,102877.44
2023-01-24T18:26:10.269Z,102918.78
2023-01-24T18:28:38.763Z,102914.28
2023-01-24T18:31:11.428Z,102926.56
2023-01-24T18:33:40.084Z,102933.53
2023-01-24T18:36:09.402Z,102923.88
2023-01-24T18:38:39.093Z,102922.28
2023-01-24T18:41:07.132Z,102912.75
2023-01-24T18:43:37.259Z,102896.03
2023-01-24T18:46:06.629Z,102903.88
2023-01-24T18:48:35.119Z,102892.56
2023-01-24T18:51:06.123Z,102850.41
2023-01-24T18:53:34.070Z,102857.53
2023-01-24T18:56:05.137Z,102821.56
2023-01-24T18:58:34.876Z,102782.25
2023-01-24T19:01:10.853Z,102737.63
2023-01-24T19:03:39.000Z,102699.00
2023-01-24T19:06:08.155Z,102674.31
2023-01-24T19:08:36.445Z,102654.91
2023-01-24T19:11:12.525Z,102674.13
2023-01-24T19:13:41.996Z,102681.97
2023-01-24T19:16:10.782Z,102706.50
2023-01-24T19:18:39.382Z,102711.72
2023-01-24T19:21:08.579Z,102738.06
2023-01-24T19:23:37.785Z,102753.81
2023-01-24T19:26:06.648Z,102753.91
2023-01-24T19:28:36.859Z,102760.09
2023-01-24T19:31:06.295Z,102740.75
2023-01-24T19:33:34.588Z,102760.94
2023-01-24T19:36:06.229Z,102782.03
2023-01-24T19:38:34.581Z,102779.41
2023-01-24T19:41:04.139Z,102806.59
2023-01-24T19:43:31.976Z,102803.03
2023-01-24T19:48:52.153Z,102818.97
2023-01-24T19:51:20.515Z,102785.47
2023-01-24T19:53:50.719Z,102785.34
2023-01-24T19:56:19.171Z,102790.59
2023-01-24T19:58:47.239Z,102779.09
2023-01-24T20:01:19.745Z,102802.84
2023-01-24T20:03:47.933Z,102831.13
2023-01-24T20:06:18.139Z,102841.78
2023-01-24T20:08:47.164Z,102822.50
2023-01-24T20:11:15.418Z,102823.31
2023-01-24T20:13:43.900Z,102780.03
2023-01-24T20:16:18.030Z,102778.06
2023-01-24T20:18:50.078Z,102831.72
2023-01-24T20:21:18.494Z,102859.84
2023-01-24T20:23:46.717Z,102837.72
2023-01-24T20:26:16.155Z,102847.25
2023-01-24T20:28:44.611Z,102854.09
2023-01-24T20:31:14.691Z,102874.97
2023-01-24T20:33:44.074Z,102887.13
2023-01-24T20:36:13.775Z,102896.72
2023-01-24T20:38:42.565Z,102894.78
2023-01-24T20:41:13.550Z,102913.19
2023-01-24T20:43:42.574Z,102942.06
2023-01-24T20:46:20.050Z,102986.84
2023-01-24T20:48:50.643Z,102976.16
2023-01-24T20:51:18.965Z,102999.03
2023-01-24T20:53:47.109Z,103021.16
2023-01-24T20:56:18.413Z,103020.44
2023-01-24T20:58:46.691Z,102997.47
2023-01-24T21:01:16.873Z,102960.53
2023-01-24T21:03:45.117Z,102941.06
2023-01-24T21:06:16.999Z,102965.84
2023-01-24T21:08:45.861Z,102966.16
2023-01-24T21:11:18.621Z,102957.50
2023-01-24T21:13:51.295Z,102959.44
2023-01-24T21:16:19.916Z,102882.94
2023-01-24T21:18:51.514Z,102883.03
2023-01-24T21:21:23.417Z,102849.66
2023-01-24T21:23:51.775Z,102847.91
2023-01-24T21:26:21.085Z,102870.88
2023-01-24T21:28:51.127Z,102842.03
2023-01-24T21:31:21.405Z,102834.16
2023-01-24T21:33:57.114Z,102848.34
2023-01-24T21:36:28.377Z,102833.44
2023-01-24T21:38:56.296Z,102765.59
2023-01-24T21:41:41.954Z,102721.53
2023-01-24T21:44:10.937Z,102763.69
2023-01-24T21:46:38.949Z,102833.22
2023-01-24T21:49:07.170Z,102793.75
2023-01-24T21:51:39.157Z,102756.81
2023-01-24T21:54:08.218Z,102791.94
2023-01-24T21:56:55.828Z,102814.84
2023-01-24T21:59:25.712Z,102791.91
2023-01-24T22:01:56.438Z,102764.59
2023-01-24T22:04:31.143Z,102784.81
2023-01-24T22:07:01.314Z,102756.75
2023-01-24T22:09:31.916Z,102728.66
2023-01-24T22:11:59.979Z,102731.38
2023-01-24T22:14:30.148Z,102746.34
2023-01-24T22:17:00.501Z,102742.88
2023-01-24T22:19:41.029Z,102717.34
2023-01-24T22:22:28.759Z,102740.31
2023-01-24T22:25:06.155Z,102691.06
2023-01-24T22:27:35.647Z,102678.78
2023-01-24T22:30:05.070Z,102630.25
2023-01-24T22:32:33.491Z,102605.56
2023-01-24T22:35:01.964Z,102631.00
2023-01-24T22:37:35.811Z,102629.19
2023-01-24T22:40:03.745Z,102687.34
2023-01-24T22:42:31.673Z,102664.59
2023-01-24T22:44:59.611Z,102633.63
2023-01-24T22:47:27.852Z,102683.84
2023-01-24T22:49:55.629Z,102664.59
2023-01-24T22:52:23.555Z,102616.09
2023-01-24T22:54:52.942Z,102622.22
2023-01-24T22:57:22.339Z,102623.81
2023-01-24T22:59:52.291Z,102670.50
2023-01-24T23:02:20.275Z,102666.13
2023-01-24T23:04:48.106Z,102653.75
2023-01-24T23:07:18.257Z,102676.72
2023-01-24T23:09:47.432Z,102688.25
2023-01-24T23:12:33.916Z,102690.84
2023-01-24T23:15:19.163Z,102704.16
2023-01-24T23:17:49.338Z,102698.13
2023-01-24T23:23:26.514Z,102639.31
2023-01-24T23:25:54.553Z,102673.59
2023-01-24T23:28:25.991Z,102668.31
2023-01-24T23:31:00.858Z,102637.38
2023-01-24T23:33:34.070Z,102676.13
2023-01-24T23:36:03.006Z,102633.88
2023-01-24T23:38:31.262Z,102654.00
2023-01-24T23:40:59.245Z,102662.78
2023-01-24T23:46:20.344Z,102716.53
2023-01-24T23:48:49.055Z,102673.41
2023-01-24T23:51:17.034Z,102605.66
2023-01-24T23:53:45.903Z,102609.19
2023-01-24T23:56:13.802Z,102655.78
2023-01-24T23:58:43.308Z,102670.75
